createdAt,value
2023-05-09T00:01:24.531Z,7.80
2023-05-09T00:03:52.161Z,7.70
2023-05-09T00:06:19.812Z,7.60
2023-05-09T00:08:46.467Z,7.60
2023-05-09T00:11:13.018Z,7.60
2023-05-09T00:13:39.558Z,7.70
2023-05-09T00:16:06.270Z,7.60
2023-05-09T00:18:34.070Z,7.70
2023-05-09T00:21:03.030Z,7.50
2023-05-09T00:23:30.120Z,7.40
2023-05-09T00:25:56.604Z,7.40
2023-05-09T00:28:23.172Z,7.40
2023-05-09T00:30:49.746Z,7.50
2023-05-09T00:33:16.262Z,7.60
2023-05-09T00:35:42.860Z,7.50
2023-05-09T00:38:09.475Z,7.40
2023-05-09T00:40:35.988Z,7.40
2023-05-09T00:43:02.558Z,7.40
2023-05-09T00:45:29.112Z,7.40
2023-05-09T00:47:55.753Z,7.30
2023-05-09T00:50:22.297Z,7.20
2023-05-09T00:52:48.900Z,7.40
2023-05-09T00:55:16.323Z,7.30
2023-05-09T00:57:43.149Z,7.30
2023-05-09T01:00:13.163Z,7.20
2023-05-09T01:02:41.235Z,7.10
2023-05-09T01:05:08.178Z,7.10
2023-05-09T01:07:37.725Z,7.10
2023-05-09T01:10:11.485Z,7.10
2023-05-09T01:12:49.501Z,7.00
2023-05-09T01:15:16.179Z,7.00
2023-05-09T01:17:49.960Z,6.90
2023-05-09T01:20:16.583Z,6.80
2023-05-09T01:22:45.634Z,6.80
2023-05-09T01:25:20.745Z,6.80
2023-05-09T01:28:06.066Z,6.70
2023-05-09T01:30:34.435Z,6.60
2023-05-09T01:33:02.898Z,6.50
2023-05-09T01:35:31.293Z,6.50
2023-05-09T01:37:58.436Z,6.50
2023-05-09T01:40:25.878Z,6.50
2023-05-09T01:42:55.194Z,6.60
2023-05-09T01:45:22.289Z,6.50
2023-05-09T01:47:49.373Z,6.40
2023-05-09T01:50:17.985Z,6.30
2023-05-09T01:52:47.956Z,6.30
2023-05-09T01:55:15.347Z,6.30
2023-05-09T01:57:42.991Z,6.30
2023-05-09T02:00:10.578Z,6.20
2023-05-09T02:02:37.639Z,6.20
2023-05-09T02:05:04.688Z,6.20
2023-05-09T02:07:31.756Z,6.20
2023-05-09T02:09:59.520Z,6.20
2023-05-09T02:12:26.355Z,6.30
2023-05-09T02:14:52.907Z,6.30
2023-05-09T02:17:19.444Z,6.20
2023-05-09T02:19:45.992Z,6.20
2023-05-09T02:22:12.714Z,6.30
2023-05-09T02:24:39.859Z,6.30
2023-05-09T02:27:07.724Z,6.40
2023-05-09T02:29:41.980Z,6.50
2023-05-09T02:32:13.954Z,6.40
2023-05-09T02:34:40.989Z,6.30
2023-05-09T02:37:07.701Z,6.30
2023-05-09T02:39:34.815Z,6.20
2023-05-09T02:42:08.967Z,6.20
2023-05-09T02:44:36.144Z,6.20
2023-05-09T02:47:03.579Z,6.10
2023-05-09T02:49:32.416Z,6.00
2023-05-09T02:51:59.401Z,6.00
2023-05-09T02:54:26.024Z,6.00
2023-05-09T02:56:52.734Z,6.00
2023-05-09T02:59:20.046Z,6.00
2023-05-09T03:01:46.588Z,5.90
2023-05-09T03:04:13.122Z,5.90
2023-05-09T03:06:39.775Z,5.80
2023-05-09T03:09:07.230Z,5.70
2023-05-09T03:11:36.551Z,5.70
2023-05-09T03:14:08.249Z,5.70
2023-05-09T03:16:34.803Z,5.70
2023-05-09T03:19:01.285Z,5.70
2023-05-09T03:21:27.796Z,5.80
2023-05-09T03:23:54.391Z,5.70
2023-05-09T03:26:21.551Z,5.60
2023-05-09T03:28:48.975Z,5.70
2023-05-09T03:31:15.823Z,5.70
2023-05-09T03:33:42.374Z,5.60
2023-05-09T03:36:08.942Z,5.70
2023-05-09T03:38:35.473Z,5.70
2023-05-09T03:41:01.971Z,5.70
2023-05-09T03:43:28.454Z,5.70
2023-05-09T03:45:54.954Z,5.70
2023-05-09T03:48:21.466Z,5.60
2023-05-09T03:50:48.350Z,5.60
2023-05-09T03:53:14.907Z,5.60
2023-05-09T03:55:41.422Z,5.70
2023-05-09T03:58:07.970Z,5.60
2023-05-09T04:00:34.569Z,5.60
2023-05-09T04:03:01.212Z,5.60
2023-05-09T04:05:27.824Z,5.70
2023-05-09T04:07:54.390Z,5.70
2023-05-09T04:10:20.903Z,5.70
2023-05-09T04:12:47.459Z,5.70
2023-05-09T04:15:14.726Z,5.60
2023-05-09T04:17:41.534Z,5.80
2023-05-09T04:20:08.326Z,5.70
2023-05-09T04:22:34.903Z,5.80
2023-05-09T04:25:01.997Z,5.70
2023-05-09T04:27:28.814Z,5.60
2023-05-09T04:29:55.411Z,5.80
2023-05-09T04:32:22.539Z,6.00
2023-05-09T04:34:49.313Z,6.10
2023-05-09T04:37:15.818Z,6.30
2023-05-09T04:39:42.362Z,6.30
2023-05-09T04:42:08.873Z,6.20
2023-05-09T04:44:35.809Z,6.20
2023-05-09T04:47:02.332Z,6.10
2023-05-09T04:49:28.968Z,6.10
2023-05-09T04:51:55.487Z,6.20
2023-05-09T04:54:21.991Z,6.30
2023-05-09T04:56:50.130Z,6.40
2023-05-09T04:59:17.222Z,6.50
2023-05-09T05:01:43.825Z,6.60
2023-05-09T05:04:10.664Z,6.70
2023-05-09T05:06:37.187Z,6.80
2023-05-09T05:09:03.688Z,6.90
2023-05-09T05:11:30.299Z,7.00
2023-05-09T05:13:56.854Z,7.10
2023-05-09T05:16:23.425Z,7.30
2023-05-09T05:18:49.969Z,7.50
2023-05-09T05:21:16.497Z,7.70
2023-05-09T05:23:43.238Z,7.90
2023-05-09T05:26:09.748Z,8.00
2023-05-09T05:28:36.270Z,8.20
2023-05-09T05:31:02.790Z,8.40
2023-05-09T05:33:29.402Z,8.50
2023-05-09T05:35:56.142Z,8.60
2023-05-09T05:38:22.765Z,8.70
2023-05-09T05:40:49.253Z,8.80
2023-05-09T05:43:15.770Z,8.90
2023-05-09T05:45:42.300Z,9.00
2023-05-09T05:48:08.870Z,9.10
2023-05-09T05:50:36.613Z,9.20
2023-05-09T05:53:03.286Z,9.30
2023-05-09T05:55:29.786Z,9.40
2023-05-09T05:57:56.342Z,9.40
2023-05-09T06:00:22.895Z,9.60
2023-05-09T06:02:49.484Z,9.60
2023-05-09T06:05:16.485Z,9.70
2023-05-09T06:07:44.347Z,9.70
2023-05-09T06:10:11.126Z,9.80
2023-05-09T06:12:37.623Z,9.90
2023-05-09T06:15:07.129Z,10.10
2023-05-09T06:17:33.891Z,10.10
2023-05-09T06:20:00.568Z,10.20
2023-05-09T06:22:27.098Z,10.30
2023-05-09T06:24:53.592Z,10.40
2023-05-09T06:27:20.138Z,10.50
2023-05-09T06:29:46.627Z,10.50
2023-05-09T06:32:13.142Z,10.60
2023-05-09T06:34:39.681Z,10.70
2023-05-09T06:37:06.228Z,10.70
2023-05-09T06:39:33.638Z,10.80
2023-05-09T06:42:00.625Z,10.90
2023-05-09T06:44:27.107Z,11.00
2023-05-09T06:46:53.612Z,11.00
2023-05-09T06:49:20.203Z,11.10
2023-05-09T06:51:46.714Z,11.20
2023-05-09T06:54:15.927Z,11.20
2023-05-09T06:56:42.454Z,11.20
2023-05-09T06:59:13.134Z,11.30
2023-05-09T07:01:40.708Z,11.40
2023-05-09T07:04:07.313Z,11.40
2023-05-09T07:06:33.818Z,11.60
2023-05-09T07:09:00.528Z,11.60
2023-05-09T07:11:27.111Z,11.70
2023-05-09T07:13:53.831Z,11.70
2023-05-09T07:16:22.884Z,12.00
2023-05-09T07:18:49.549Z,12.10
2023-05-09T07:21:16.034Z,12.10
2023-05-09T07:23:42.620Z,12.10
2023-05-09T07:26:11.496Z,12.20
2023-05-09T07:28:38.943Z,12.30
2023-05-09T07:31:06.182Z,12.40
2023-05-09T07:33:32.734Z,12.50
2023-05-09T07:35:59.466Z,12.50
2023-05-09T07:38:26.316Z,12.60
2023-05-09T07:40:55.903Z,12.70
2023-05-09T07:43:22.455Z,12.80
2023-05-09T07:45:49.035Z,12.90
2023-05-09T07:48:15.773Z,12.90
2023-05-09T07:50:42.331Z,13.00
2023-05-09T07:53:08.920Z,12.90
2023-05-09T07:55:35.449Z,12.90
2023-05-09T07:58:01.993Z,12.90
2023-05-09T08:00:28.538Z,13.00
2023-05-09T08:02:55.179Z,13.00
2023-05-09T08:05:21.877Z,13.10
2023-05-09T08:07:48.419Z,13.30
2023-05-09T08:10:15.022Z,13.40
2023-05-09T08:12:41.555Z,13.40
2023-05-09T08:15:08.291Z,13.50
2023-05-09T08:17:34.892Z,13.60
2023-05-09T08:20:01.583Z,13.60
2023-05-09T08:22:28.145Z,13.70
2023-05-09T08:24:54.655Z,13.60
2023-05-09T08:27:21.178Z,13.60
2023-05-09T08:29:47.740Z,13.60
2023-05-09T08:32:14.384Z,13.80
2023-05-09T08:34:41.160Z,13.90
2023-05-09T08:37:07.832Z,14.00
2023-05-09T08:39:37.404Z,14.10
2023-05-09T08:42:04.065Z,14.20
2023-05-09T08:44:31.212Z,14.30
2023-05-09T08:47:02.429Z,14.30
2023-05-09T08:49:29.628Z,14.50
2023-05-09T08:51:56.587Z,14.50
2023-05-09T08:54:23.812Z,14.50
2023-05-09T08:56:50.934Z,14.50
2023-05-09T08:59:18.744Z,14.50
2023-05-09T09:01:45.556Z,14.40
2023-05-09T09:04:12.225Z,14.50
2023-05-09T09:06:39.476Z,14.50
2023-05-09T09:09:07.022Z,14.40
2023-05-09T09:11:34.219Z,14.60
2023-05-09T09:14:02.053Z,14.50
2023-05-09T09:16:29.258Z,14.60
2023-05-09T09:18:58.080Z,14.60
2023-05-09T09:21:25.395Z,14.60
2023-05-09T09:23:52.491Z,14.70
2023-05-09T09:26:18.991Z,14.80
2023-05-09T09:28:45.529Z,14.80
2023-05-09T09:31:30.728Z,14.90
2023-05-09T09:34:02.024Z,14.90
2023-05-09T09:36:29.394Z,14.90
2023-05-09T09:38:58.561Z,14.80
2023-05-09T09:41:32.750Z,14.80
2023-05-09T09:43:59.295Z,14.90
2023-05-09T09:46:25.935Z,14.90
2023-05-09T09:48:56.700Z,14.90
2023-05-09T09:51:27.440Z,15.00
2023-05-09T09:53:53.942Z,15.00
2023-05-09T09:56:21.922Z,15.10
2023-05-09T09:58:48.458Z,15.10
2023-05-09T10:01:16.418Z,15.10
2023-05-09T10:03:45.116Z,15.10
2023-05-09T10:06:13.253Z,15.30
2023-05-09T10:08:40.450Z,15.30
2023-05-09T10:11:07.377Z,15.30
2023-05-09T10:13:38.328Z,15.30
2023-05-09T10:16:06.758Z,15.40
2023-05-09T10:18:34.472Z,15.40
2023-05-09T10:21:03.240Z,15.40
2023-05-09T10:23:31.314Z,15.50
2023-05-09T10:26:05.915Z,15.50
2023-05-09T10:28:33.408Z,15.60
2023-05-09T10:31:05.427Z,15.70
2023-05-09T10:33:43.783Z,15.70
2023-05-09T10:36:10.738Z,15.80
2023-05-09T10:38:37.321Z,15.90
2023-05-09T10:41:05.336Z,15.90
2023-05-09T10:43:34.749Z,16.00
2023-05-09T10:46:03.805Z,16.00
2023-05-09T10:48:32.169Z,16.00
2023-05-09T10:50:59.915Z,16.00
2023-05-09T10:53:40.781Z,16.00
2023-05-09T10:56:07.399Z,16.10
2023-05-09T10:58:36.225Z,16.10
2023-05-09T11:01:04.417Z,16.10
2023-05-09T11:03:50.065Z,16.10
2023-05-09T11:06:36.672Z,16.10
2023-05-09T11:09:22.245Z,16.10
2023-05-09T11:11:52.966Z,16.20
2023-05-09T11:14:29.406Z,16.20
2023-05-09T11:17:00.206Z,16.20
2023-05-09T11:19:37.098Z,16.30
2023-05-09T11:22:14.203Z,16.30
2023-05-09T11:24:44.805Z,16.20
2023-05-09T11:27:21.126Z,16.20
2023-05-09T11:29:51.979Z,16.30
2023-05-09T11:32:19.033Z,16.40
2023-05-09T11:34:45.761Z,16.40
2023-05-09T11:37:13.203Z,16.40
2023-05-09T11:39:59.123Z,16.20
2023-05-09T11:42:29.352Z,16.20
2023-05-09T11:44:56.439Z,16.20
2023-05-09T11:47:23.066Z,16.20
2023-05-09T11:49:50.101Z,16.20
2023-05-09T11:52:17.053Z,16.10
2023-05-09T11:54:43.632Z,16.20
2023-05-09T11:57:10.544Z,16.20
2023-05-09T11:59:38.325Z,16.10
2023-05-09T12:02:05.887Z,16.10
2023-05-09T12:04:32.873Z,16.10
2023-05-09T12:06:59.822Z,16.20
2023-05-09T12:09:31.567Z,16.20
2023-05-09T12:11:58.222Z,16.10
2023-05-09T12:14:34.688Z,16.20
2023-05-09T12:17:01.731Z,16.20
2023-05-09T12:19:28.548Z,16.20
2023-05-09T12:21:58.647Z,16.20
2023-05-09T12:24:28.884Z,16.20
2023-05-09T12:26:59.053Z,16.40
2023-05-09T12:29:25.832Z,16.40
2023-05-09T12:31:53.621Z,16.50
2023-05-09T12:34:21.214Z,16.40
2023-05-09T12:36:51.607Z,16.40
2023-05-09T12:39:24.628Z,16.40
2023-05-09T12:42:00.966Z,16.50
2023-05-09T12:44:29.709Z,16.50
2023-05-09T12:46:57.908Z,16.50
2023-05-09T12:49:24.845Z,16.60
2023-05-09T12:51:52.653Z,16.50
2023-05-09T12:54:23.440Z,16.50
2023-05-09T12:56:52.367Z,16.50
2023-05-09T12:59:25.900Z,16.50
2023-05-09T13:01:54.218Z,16.50
2023-05-09T13:04:21.777Z,16.50
2023-05-09T13:06:52.504Z,16.50
2023-05-09T13:09:19.245Z,16.50
2023-05-09T13:11:46.605Z,16.60
2023-05-09T13:14:13.538Z,16.60
2023-05-09T13:16:40.185Z,16.70
2023-05-09T13:19:07.080Z,16.70
2023-05-09T13:21:34.001Z,16.70
2023-05-09T13:24:00.617Z,16.70
2023-05-09T13:26:30.193Z,16.70
2023-05-09T13:28:56.910Z,16.80
2023-05-09T13:31:23.839Z,16.80
2023-05-09T13:33:52.018Z,16.90
2023-05-09T13:36:19.431Z,16.80
2023-05-09T13:38:46.047Z,16.90
2023-05-09T13:41:13.577Z,16.80
2023-05-09T13:43:42.477Z,16.90
2023-05-09T13:46:09.079Z,16.90
2023-05-09T13:48:35.615Z,16.90
2023-05-09T13:51:03.641Z,16.90
2023-05-09T13:53:30.245Z,16.90
2023-05-09T13:55:56.993Z,16.90
2023-05-09T13:58:23.657Z,16.90
2023-05-09T14:00:50.325Z,16.90
2023-05-09T14:03:21.268Z,17.00
2023-05-09T14:05:48.286Z,17.00
2023-05-09T14:08:14.886Z,17.00
2023-05-09T14:10:41.426Z,17.10
2023-05-09T14:13:08.323Z,17.00
2023-05-09T14:15:35.134Z,17.20
2023-05-09T14:18:01.997Z,17.20
2023-05-09T14:20:28.724Z,17.20
2023-05-09T14:22:59.567Z,17.20
2023-05-09T14:25:26.527Z,17.30
2023-05-09T14:27:53.536Z,17.30
2023-05-09T14:30:20.272Z,17.40
2023-05-09T14:32:46.886Z,17.30
2023-05-09T14:35:13.563Z,17.30
2023-05-09T14:37:41.346Z,17.40
2023-05-09T14:40:08.892Z,17.40
2023-05-09T14:42:36.792Z,17.40
2023-05-09T14:45:03.797Z,17.50
2023-05-09T14:47:30.492Z,17.80
2023-05-09T14:49:57.113Z,18.00
2023-05-09T14:52:23.637Z,18.10
2023-05-09T14:54:50.148Z,18.20
2023-05-09T14:57:16.649Z,18.20
2023-05-09T14:59:43.161Z,18.20
2023-05-09T15:02:09.724Z,18.20
2023-05-09T15:04:36.252Z,18.10
2023-05-09T15:07:02.764Z,18.10
2023-05-09T15:09:29.283Z,18.10
2023-05-09T15:11:56.146Z,18.10
2023-05-09T15:14:22.655Z,18.10
2023-05-09T15:16:51.520Z,18.20
2023-05-09T15:19:18.190Z,18.20
2023-05-09T15:21:44.761Z,18.30
2023-05-09T15:24:12.365Z,18.40
2023-05-09T15:26:38.896Z,18.30
2023-05-09T15:29:05.476Z,18.40
2023-05-09T15:31:32.960Z,18.50
2023-05-09T15:33:59.966Z,18.40
2023-05-09T15:36:29.321Z,18.40
2023-05-09T15:38:56.030Z,18.40
2023-05-09T15:41:23.051Z,18.30
2023-05-09T15:43:51.044Z,18.30
2023-05-09T15:46:17.745Z,18.20
2023-05-09T15:48:44.641Z,18.30
2023-05-09T15:51:11.375Z,18.30
2023-05-09T15:53:37.879Z,18.30
2023-05-09T15:56:04.524Z,18.30
2023-05-09T15:58:31.081Z,18.30
2023-05-09T16:00:57.602Z,18.30
2023-05-09T16:03:25.070Z,18.30
2023-05-09T16:05:52.082Z,18.30
2023-05-09T16:08:18.674Z,18.30
2023-05-09T16:10:48.908Z,18.20
2023-05-09T16:13:17.715Z,18.20
2023-05-09T16:15:45.278Z,18.10
2023-05-09T16:18:12.103Z,18.10
2023-05-09T16:20:38.713Z,18.10
2023-05-09T16:23:05.279Z,18.10
2023-05-09T16:25:33.901Z,18.00
2023-05-09T16:28:01.809Z,18.00
2023-05-09T16:30:28.538Z,18.00
2023-05-09T16:32:55.063Z,18.00
2023-05-09T16:35:21.880Z,18.00
2023-05-09T16:37:48.458Z,18.00
2023-05-09T16:40:15.326Z,18.00
2023-05-09T16:42:42.889Z,17.90
2023-05-09T16:45:09.916Z,17.90
2023-05-09T16:47:36.686Z,17.80
2023-05-09T16:50:04.605Z,17.80
2023-05-09T16:52:31.226Z,17.80
2023-05-09T16:54:59.359Z,17.70
2023-05-09T17:00:17.605Z,17.70
2023-05-09T17:02:44.454Z,17.70
2023-05-09T17:05:10.970Z,17.60
2023-05-09T17:07:37.524Z,17.50
2023-05-09T17:10:04.287Z,17.40
2023-05-09T17:12:30.875Z,17.40
2023-05-09T17:14:57.381Z,17.30
2023-05-09T17:17:23.894Z,17.20
2023-05-09T17:19:50.556Z,17.00
2023-05-09T17:22:17.050Z,17.00
2023-05-09T17:24:43.638Z,16.80
2023-05-09T17:27:11.645Z,16.70
2023-05-09T17:29:38.277Z,16.60
2023-05-09T17:32:05.021Z,16.50
2023-05-09T17:34:32.240Z,16.40
2023-05-09T17:36:58.787Z,16.40
2023-05-09T17:39:25.351Z,16.40
2023-05-09T17:41:51.901Z,16.30
2023-05-09T17:44:18.767Z,16.30
2023-05-09T17:46:45.391Z,16.30
2023-05-09T17:49:14.198Z,16.30
2023-05-09T17:51:40.933Z,16.20
2023-05-09T17:54:07.640Z,16.10
2023-05-09T17:56:34.257Z,16.00
2023-05-09T17:59:01.464Z,15.90
2023-05-09T18:01:28.154Z,15.80
2023-05-09T18:03:55.184Z,15.70
2023-05-09T18:06:21.810Z,15.60
2023-05-09T18:08:48.408Z,15.50
2023-05-09T18:11:15.147Z,15.40
2023-05-09T18:13:41.748Z,15.40
2023-05-09T18:16:08.394Z,15.40
2023-05-09T18:18:36.387Z,15.40
2023-05-09T18:21:04.841Z,15.30
2023-05-09T18:23:31.429Z,15.20
2023-05-09T18:25:58.254Z,15.10
2023-05-09T18:28:25.262Z,15.00
2023-05-09T18:30:54.378Z,14.90
2023-05-09T18:33:22.824Z,14.90
2023-05-09T18:35:49.362Z,14.80
2023-05-09T18:38:16.001Z,14.80
2023-05-09T18:40:42.972Z,14.60
2023-05-09T18:43:09.662Z,14.50
2023-05-09T18:45:36.172Z,14.30
2023-05-09T18:48:04.164Z,14.20
2023-05-09T18:50:30.862Z,14.20
2023-05-09T18:52:57.393Z,14.00
2023-05-09T18:55:23.946Z,14.00
2023-05-09T18:57:50.513Z,13.90
2023-05-09T19:00:17.639Z,13.80
2023-05-09T19:02:44.426Z,13.70
2023-05-09T19:05:11.576Z,13.70
2023-05-09T19:07:38.324Z,13.60
2023-05-09T19:10:05.623Z,13.50
2023-05-09T19:12:32.389Z,13.40
2023-05-09T19:14:58.906Z,13.40
2023-05-09T19:17:25.501Z,13.30
2023-05-09T19:19:52.562Z,13.30
2023-05-09T19:22:19.358Z,13.20
2023-05-09T19:24:46.105Z,13.20
2023-05-09T19:27:12.796Z,13.20
2023-05-09T19:29:39.548Z,13.10
2023-05-09T19:32:07.065Z,13.10
2023-05-09T19:34:34.458Z,13.20
2023-05-09T19:37:01.186Z,13.20
2023-05-09T19:39:29.373Z,13.10
2023-05-09T19:41:57.312Z,13.10
2023-05-09T19:44:25.918Z,13.00
2023-05-09T19:46:52.590Z,13.00
2023-05-09T19:49:19.385Z,13.00
2023-05-09T19:51:46.213Z,12.90
2023-05-09T19:54:14.218Z,12.80
2023-05-09T19:56:40.951Z,12.80
2023-05-09T19:59:07.580Z,12.80
2023-05-09T20:01:34.526Z,12.80
2023-05-09T20:04:01.815Z,12.80
2023-05-09T20:06:28.821Z,12.70
2023-05-09T20:08:55.641Z,12.60
2023-05-09T20:11:22.320Z,12.50
2023-05-09T20:13:48.901Z,12.60
2023-05-09T20:16:21.722Z,12.60
2023-05-09T20:18:50.005Z,12.50
2023-05-09T20:21:17.991Z,12.40
2023-05-09T20:23:45.110Z,12.30
2023-05-09T20:26:11.729Z,12.30
2023-05-09T20:28:38.284Z,12.30
2023-05-09T20:31:04.842Z,12.30
2023-05-09T20:33:31.392Z,12.20
2023-05-09T20:35:57.938Z,12.20
2023-05-09T20:38:24.483Z,12.10
2023-05-09T20:40:51.144Z,12.10
2023-05-09T20:43:17.682Z,12.10
2023-05-09T20:45:44.303Z,12.10
2023-05-09T20:48:11.387Z,12.10
2023-05-09T20:50:37.931Z,12.20
2023-05-09T20:53:04.638Z,12.20
2023-05-09T20:55:31.191Z,12.30
2023-05-09T20:57:58.064Z,12.40
2023-05-09T21:00:24.764Z,12.40
2023-05-09T21:02:51.522Z,12.50
2023-05-09T21:05:18.288Z,12.50
2023-05-09T21:07:44.878Z,12.60
2023-05-09T21:10:11.646Z,12.60
2023-05-09T21:12:38.394Z,12.60
2023-05-09T21:15:05.352Z,12.70
2023-05-09T21:17:32.108Z,12.60
2023-05-09T21:19:58.733Z,12.60
2023-05-09T21:22:25.429Z,12.50
2023-05-09T21:24:52.011Z,12.50
2023-05-09T21:27:18.730Z,12.50
2023-05-09T21:29:49.182Z,12.50
2023-05-09T21:32:16.926Z,12.50
2023-05-09T21:34:43.535Z,12.60
2023-05-09T21:37:10.111Z,12.70
2023-05-09T21:39:36.847Z,12.70
2023-05-09T21:42:03.496Z,12.70
2023-05-09T21:44:30.290Z,12.60
2023-05-09T21:46:56.942Z,12.50
2023-05-09T21:49:23.564Z,12.40
2023-05-09T21:51:50.226Z,12.40
2023-05-09T21:54:16.841Z,12.40
2023-05-09T21:56:43.550Z,12.20
2023-05-09T21:59:10.619Z,12.10
2023-05-09T22:01:37.321Z,12.00
2023-05-09T22:04:04.754Z,11.90
2023-05-09T22:06:31.630Z,11.90
2023-05-09T22:08:58.488Z,12.00
2023-05-09T22:11:25.119Z,12.00
2023-05-09T22:13:51.973Z,12.00
2023-05-09T22:16:18.700Z,12.10
2023-05-09T22:18:45.302Z,12.20
2023-05-09T22:21:12.690Z,12.10
2023-05-09T22:23:39.370Z,12.20
2023-05-09T22:26:06.094Z,12.10
2023-05-09T22:28:32.848Z,12.00
2023-05-09T22:30:59.431Z,11.90
2023-05-09T22:33:26.225Z,11.80
2023-05-09T22:35:53.024Z,11.60
2023-05-09T22:38:20.263Z,11.50
2023-05-09T22:40:46.915Z,11.40
2023-05-09T22:43:13.580Z,11.30
2023-05-09T22:45:40.357Z,11.30
2023-05-09T22:48:07.249Z,11.40
2023-05-09T22:50:35.178Z,11.30
2023-05-09T22:53:02.351Z,11.30
2023-05-09T22:55:29.924Z,11.40
2023-05-09T22:57:56.512Z,11.30
2023-05-09T23:00:23.155Z,11.20
2023-05-09T23:02:49.949Z,11.20
2023-05-09T23:05:16.626Z,11.10
2023-05-09T23:07:43.381Z,11.20
2023-05-09T23:10:10.370Z,11.20
2023-05-09T23:12:38.018Z,11.20
2023-05-09T23:15:05.622Z,11.20
2023-05-09T23:17:32.237Z,11.10
2023-05-09T23:20:00.663Z,11.10
2023-05-09T23:22:27.497Z,11.10
2023-05-09T23:24:54.049Z,11.10
2023-05-09T23:27:20.793Z,11.00
2023-05-09T23:29:47.502Z,11.00
2023-05-09T23:32:14.138Z,10.90
2023-05-09T23:34:40.756Z,11.00
2023-05-09T23:37:08.507Z,11.00
2023-05-09T23:39:35.377Z,10.90
2023-05-09T23:42:01.948Z,10.90
2023-05-09T23:44:28.645Z,10.90
2023-05-09T23:46:55.482Z,10.90
2023-05-09T23:49:24.003Z,10.80
2023-05-09T23:51:50.598Z,10.80
2023-05-09T23:54:17.298Z,10.80
2023-05-09T23:56:43.897Z,10.70
2023-05-09T23:59:10.519Z,10.70
